Bramham, United Kingdom
Current Conditions -  °F | °C
As of 2:20 PM on Wednesday 28 Jan 2015 (Local Time) from EGNM Reporting Station
Light Rain Light Rain  
Wind Chill: -5°   Ceiling: Unl
Heat Index:   Visibility: 6mi
Dew Point: -1°   Wind: 31mph
Humidity: 81%   Direction: 280°W
Pressure: 29.32"   Gusts: 45mph
Location:  53.88°N, 1.35°W
Report Text: EGNM 281420Z 28027G39KT 9999 -RA SCT015TCU SCT029 02/M01 Q0993
Loading
Personal Weather Stations






























Interactive Weather Map New forecast layout! Learn more

10-Day Weather Forecast

Advertisements
Track Severe Weather on mobile